Plato — 8PRX — position and weather

sailwx.info

Track history (hours):
 
Tides and Currents Weather Stations Pressure Air Temp Water Temp Dewpoint Dewpoint Depression Visibility Wind Speed Wind Dir Waves Ship Positions

Plato

Last reported at 2015-May-14 01:31 UTC. Time now 2015-May-28 22:15 UTC.
Position N 53°33' E 004°48'.
Warning: this ship's position is 14 days out of date.

Length 88 m; draft 4.5 m.

Type: Ship. MMSI: 314189000.

Date/timePositionNaut miles runAvg speedWind from/ knotsBaromVisibWave heightAir tempDewpointWater temp
2015-May-14 01:31N 53°33' E 004°48'9 8.6
2015-May-14 00:30N 53°25' E 004°42'33 8.5
2015-May-13 20:33N 52°55' E 004°18'7 7.5
2015-May-13 19:33N 52°48' E 004°12'7 7.2
2015-May-13 18:33N 52°42' E 004°06'7 7.0
2015-May-13 17:33N 52°36' E 004°00'7 7.0
2015-May-13 16:30N 52°30' E 003°54'15 7.3
2015-May-13 14:28N 52°15' E 003°53'8 8.2
2015-May-13 13:33N 52°08' E 003°55'9 8.6
2015-May-13 12:33N 52°00' E 004°01'4 3.9
2015-May-13 11:32N 51°57' E 004°05'0 0.0
2015-May-13 10:31N 51°57' E 004°05'0 0.0
2015-May-13 09:31N 51°57' E 004°05'0 0.0
2015-May-13 08:33N 51°57' E 004°05'0 0.0
2015-May-13 07:32N 51°57' E 004°05'0 0.0
2015-May-13 06:32N 51°57' E 004°05'0 0.0
2015-May-13 05:31N 51°57' E 004°05'0 0.0
2015-May-13 04:33N 51°57' E 004°05'0 0.0
2015-May-13 03:33N 51°57' E 004°05'0 0.0
2015-May-13 02:32N 51°57' E 004°05'0 0.0
2015-May-13 01:31N 51°57' E 004°05'0 0.0
2015-May-13 00:32N 51°57' E 004°05'0 0.0
2015-May-12 23:28N 51°57' E 004°05'0 0.0
2015-May-12 22:31N 51°57' E 004°05'0 0.0
2015-May-12 21:33N 51°57' E 004°05'0 0.0
2015-May-12 20:32N 51°57' E 004°05'0 0.0
2015-May-12 19:29N 51°57' E 004°05'0 0.0
2015-May-12 18:28N 51°57' E 004°05'0 0.0
2015-May-12 17:33N 51°57' E 004°05'1 0.6
2015-May-12 16:34N 51°57' E 004°05'6 6.5
2015-May-12 15:33N 51°60' E 003°55'58 9.1
2015-May-12 09:10N 51°39' E 002°28'813.5
2015-May-12 08:32N 51°33' E 002°18'8 8.4
2015-May-12 07:34N 51°27' E 002°09'8 7.5
2015-May-12 06:34N 51°26' E 001°57'8 8.3
2015-May-12 05:34N 51°29' E 001°45'9 8.9
2015-May-12 04:34N 51°29' E 001°30'8 7.8
2015-May-12 03:33N 51°29' E 001°18'8 7.9
2015-May-12 02:33N 51°29' E 001°05'8 8.5
2015-May-12 01:33N 51°29' E 000°51'10 9.7
2015-May-12 00:33N 51°30' E 000°36'9 9.4
2015-May-11 23:33N 51°27' E 000°22'3 2.9
2015-May-11 22:33N 51°28' E 000°17'0 0.0
2015-May-11 21:33N 51°28' E 000°17'0 0.0
2015-May-11 20:34N 51°28' E 000°17'0 0.0
2015-May-11 19:34N 51°28' E 000°17'0 0.0
2015-May-11 18:32N 51°28' E 000°17'0 0.0
2015-May-11 17:34N 51°28' E 000°17'0 0.0
2015-May-11 16:25N 51°28' E 000°17'0 0.0
2015-May-11 15:34N 51°28' E 000°17'0 0.0
2015-May-11 14:33N 51°28' E 000°17'0 0.0
2015-May-11 13:34N 51°28' E 000°17'0 0.0
2015-May-11 12:34N 51°28' E 000°17'0 0.0
2015-May-11 11:33N 51°28' E 000°17'0 0.0
2015-May-11 10:33N 51°28' E 000°17'0 0.0
2015-May-11 09:33N 51°28' E 000°17'0 0.0
2015-May-11 08:34N 51°28' E 000°17'0 0.0
2015-May-11 07:33N 51°28' E 000°17'0 0.0
2015-May-11 06:34N 51°28' E 000°17'0 0.0
2015-May-11 05:34N 51°28' E 000°17'0 0.0
2015-May-11 04:34N 51°28' E 000°17'0 0.0
2015-May-11 03:34N 51°28' E 000°17'0 0.0
2015-May-11 02:33N 51°28' E 000°17'0 0.0
2015-May-11 01:34N 51°28' E 000°18'0 0.0
2015-May-11 00:34N 51°28' E 000°17'0 0.0
2015-May-10 23:33N 51°28' E 000°17'0 0.0
2015-May-10 22:33N 51°28' E 000°17'0 0.0
2015-May-10 21:32N 51°28' E 000°17'0 0.0
2015-May-10 20:33N 51°28' E 000°17'0 0.0
2015-May-10 19:33N 51°28' E 000°17'0 0.0
2015-May-10 18:33N 51°28' E 000°17'0 0.0
2015-May-10 17:33N 51°28' E 000°17'0 0.0
2015-May-10 16:34N 51°28' E 000°17'0 0.0
2015-May-10 15:33N 51°28' E 000°17'0 0.0
2015-May-10 14:34N 51°28' E 000°18'0 0.0
2015-May-10 13:30N 51°28' E 000°18'0 0.0
2015-May-10 12:34N 51°28' E 000°17'0 0.0
2015-May-10 11:33N 51°28' E 000°17'0 0.0
2015-May-10 10:34N 51°28' E 000°17'0 0.0
2015-May-10 09:31N 51°28' E 000°17'0 0.0
2015-May-10 08:33N 51°28' E 000°17'0 0.0
2015-May-10 07:33N 51°28' E 000°17'0 0.0
2015-May-10 06:33N 51°28' E 000°17'0 0.0
2015-May-10 05:32N 51°28' E 000°17'0 0.0
2015-May-10 04:31N 51°28' E 000°17'0 0.0
2015-May-10 03:34N 51°28' E 000°17'0 0.0
2015-May-10 02:33N 51°28' E 000°17'0 0.0
2015-May-10 01:32N 51°28' E 000°17'0 0.0
2015-May-10 00:33N 51°28' E 000°17'0 0.0
2015-May-09 23:34N 51°28' E 000°17'0 0.0
2015-May-09 22:33N 51°28' E 000°17'0 0.0
2015-May-09 21:33N 51°28' E 000°17'0 0.0
2015-May-09 20:33N 51°28' E 000°17'0 0.0
2015-May-09 19:33N 51°28' E 000°17'0 0.0
2015-May-09 18:34N 51°28' E 000°17'0 0.0
2015-May-09 17:34N 51°28' E 000°17'0 0.0
2015-May-09 16:33N 51°28' E 000°17'0 0.0
2015-May-09 15:33N 51°28' E 000°17'0 0.0
2015-May-09 14:34N 51°28' E 000°17'0 0.0
2015-May-09 13:33N 51°28' E 000°17'1 1.3
2015-May-09 12:34N 51°28' E 000°20'8 7.6
2015-May-09 11:33N 51°30' E 000°31'10 9.7
2015-May-09 10:33N 51°30' E 000°47'7 6.9
2015-May-09 09:33N 51°29' E 000°58'5 5.4
2015-May-09 08:34N 51°30' E 001°06'6 5.7
2015-May-09 07:31N 51°29' E 001°16'7 6.9
2015-May-09 06:33N 51°28' E 001°26'5 5.1
2015-May-09 05:33N 51°24' E 001°32'5 4.5
2015-May-09 04:33N 51°24' E 001°39'2 1.6
2015-May-09 03:33N 51°22' E 001°40'7 7.1
2015-May-09 02:33N 51°15' E 001°39'7 7.5
2015-May-09 01:34N 51°08' E 001°42'7 7.3
2015-May-09 00:33N 51°02' E 001°35'  
Track history (hours):
 
Tides and Currents Weather Stations Pressure Air Temp Water Temp Dewpoint Dewpoint Depression Visibility Wind Speed Wind Dir Waves Ship Positions

Plato

Last reported at 2015-May-14 01:31 UTC. Time now 2015-May-28 22:15 UTC.
Position N 53°33' E 004°48'.
Warning: this ship's position is 14 days out of date.

Length 88 m; draft 4.5 m.

Type: Ship. MMSI: 314189000.

Date/timePositionNaut miles runAvg speedWind from/ knotsBaromVisibWave heightAir tempDewpointWater temp
2015-May-14 01:31N 53°33' E 004°48'9 8.6
2015-May-14 00:30N 53°25' E 004°42'33 8.5
2015-May-13 20:33N 52°55' E 004°18'7 7.5
2015-May-13 19:33N 52°48' E 004°12'7 7.2
2015-May-13 18:33N 52°42' E 004°06'7 7.0
2015-May-13 17:33N 52°36' E 004°00'7 7.0
2015-May-13 16:30N 52°30' E 003°54'15 7.3
2015-May-13 14:28N 52°15' E 003°53'8 8.2
2015-May-13 13:33N 52°08' E 003°55'9 8.6
2015-May-13 12:33N 52°00' E 004°01'4 3.9
2015-May-13 11:32N 51°57' E 004°05'0 0.0
2015-May-13 10:31N 51°57' E 004°05'0 0.0
2015-May-13 09:31N 51°57' E 004°05'0 0.0
2015-May-13 08:33N 51°57' E 004°05'0 0.0
2015-May-13 07:32N 51°57' E 004°05'0 0.0
2015-May-13 06:32N 51°57' E 004°05'0 0.0
2015-May-13 05:31N 51°57' E 004°05'0 0.0
2015-May-13 04:33N 51°57' E 004°05'0 0.0
2015-May-13 03:33N 51°57' E 004°05'0 0.0
2015-May-13 02:32N 51°57' E 004°05'0 0.0
2015-May-13 01:31N 51°57' E 004°05'0 0.0
2015-May-13 00:32N 51°57' E 004°05'0 0.0
2015-May-12 23:28N 51°57' E 004°05'0 0.0
2015-May-12 22:31N 51°57' E 004°05'0 0.0
2015-May-12 21:33N 51°57' E 004°05'0 0.0
2015-May-12 20:32N 51°57' E 004°05'0 0.0
2015-May-12 19:29N 51°57' E 004°05'0 0.0
2015-May-12 18:28N 51°57' E 004°05'0 0.0
2015-May-12 17:33N 51°57' E 004°05'1 0.6
2015-May-12 16:34N 51°57' E 004°05'6 6.5
2015-May-12 15:33N 51°60' E 003°55'58 9.1
2015-May-12 09:10N 51°39' E 002°28'813.5
2015-May-12 08:32N 51°33' E 002°18'8 8.4
2015-May-12 07:34N 51°27' E 002°09'8 7.5
2015-May-12 06:34N 51°26' E 001°57'8 8.3
2015-May-12 05:34N 51°29' E 001°45'9 8.9
2015-May-12 04:34N 51°29' E 001°30'8 7.8
2015-May-12 03:33N 51°29' E 001°18'8 7.9
2015-May-12 02:33N 51°29' E 001°05'8 8.5
2015-May-12 01:33N 51°29' E 000°51'10 9.7
2015-May-12 00:33N 51°30' E 000°36'9 9.4
2015-May-11 23:33N 51°27' E 000°22'3 2.9
2015-May-11 22:33N 51°28' E 000°17'0 0.0
2015-May-11 21:33N 51°28' E 000°17'0 0.0
2015-May-11 20:34N 51°28' E 000°17'0 0.0
2015-May-11 19:34N 51°28' E 000°17'0 0.0
2015-May-11 18:32N 51°28' E 000°17'0 0.0
2015-May-11 17:34N 51°28' E 000°17'0 0.0
2015-May-11 16:25N 51°28' E 000°17'0 0.0
2015-May-11 15:34N 51°28' E 000°17'0 0.0
2015-May-11 14:33N 51°28' E 000°17'0 0.0
2015-May-11 13:34N 51°28' E 000°17'0 0.0
2015-May-11 12:34N 51°28' E 000°17'0 0.0
2015-May-11 11:33N 51°28' E 000°17'0 0.0
2015-May-11 10:33N 51°28' E 000°17'0 0.0
2015-May-11 09:33N 51°28' E 000°17'0 0.0
2015-May-11 08:34N 51°28' E 000°17'0 0.0
2015-May-11 07:33N 51°28' E 000°17'0 0.0
2015-May-11 06:34N 51°28' E 000°17'0 0.0
2015-May-11 05:34N 51°28' E 000°17'0 0.0
2015-May-11 04:34N 51°28' E 000°17'0 0.0
2015-May-11 03:34N 51°28' E 000°17'0 0.0
2015-May-11 02:33N 51°28' E 000°17'0 0.0
2015-May-11 01:34N 51°28' E 000°18'0 0.0
2015-May-11 00:34N 51°28' E 000°17'0 0.0
2015-May-10 23:33N 51°28' E 000°17'0 0.0
2015-May-10 22:33N 51°28' E 000°17'0 0.0
2015-May-10 21:32N 51°28' E 000°17'0 0.0
2015-May-10 20:33N 51°28' E 000°17'0 0.0
2015-May-10 19:33N 51°28' E 000°17'0 0.0
2015-May-10 18:33N 51°28' E 000°17'0 0.0
2015-May-10 17:33N 51°28' E 000°17'0 0.0
2015-May-10 16:34N 51°28' E 000°17'0 0.0
2015-May-10 15:33N 51°28' E 000°17'0 0.0
2015-May-10 14:34N 51°28' E 000°18'0 0.0
2015-May-10 13:30N 51°28' E 000°18'0 0.0
2015-May-10 12:34N 51°28' E 000°17'0 0.0
2015-May-10 11:33N 51°28' E 000°17'0 0.0
2015-May-10 10:34N 51°28' E 000°17'0 0.0
2015-May-10 09:31N 51°28' E 000°17'0 0.0
2015-May-10 08:33N 51°28' E 000°17'0 0.0
2015-May-10 07:33N 51°28' E 000°17'0 0.0
2015-May-10 06:33N 51°28' E 000°17'0 0.0
2015-May-10 05:32N 51°28' E 000°17'0 0.0
2015-May-10 04:31N 51°28' E 000°17'0 0.0
2015-May-10 03:34N 51°28' E 000°17'0 0.0
2015-May-10 02:33N 51°28' E 000°17'0 0.0
2015-May-10 01:32N 51°28' E 000°17'0 0.0
2015-May-10 00:33N 51°28' E 000°17'0 0.0
2015-May-09 23:34N 51°28' E 000°17'0 0.0
2015-May-09 22:33N 51°28' E 000°17'0 0.0
2015-May-09 21:33N 51°28' E 000°17'0 0.0
2015-May-09 20:33N 51°28' E 000°17'0 0.0
2015-May-09 19:33N 51°28' E 000°17'0 0.0
2015-May-09 18:34N 51°28' E 000°17'0 0.0
2015-May-09 17:34N 51°28' E 000°17'0 0.0
2015-May-09 16:33N 51°28' E 000°17'0 0.0
2015-May-09 15:33N 51°28' E 000°17'0 0.0
2015-May-09 14:34N 51°28' E 000°17'0 0.0
2015-May-09 13:33N 51°28' E 000°17'1 1.3
2015-May-09 12:34N 51°28' E 000°20'8 7.6
2015-May-09 11:33N 51°30' E 000°31'10 9.7
2015-May-09 10:33N 51°30' E 000°47'7 6.9
2015-May-09 09:33N 51°29' E 000°58'5 5.4
2015-May-09 08:34N 51°30' E 001°06'6 5.7
2015-May-09 07:31N 51°29' E 001°16'7 6.9
2015-May-09 06:33N 51°28' E 001°26'5 5.1
2015-May-09 05:33N 51°24' E 001°32'5 4.5
2015-May-09 04:33N 51°24' E 001°39'2 1.6
2015-May-09 03:33N 51°22' E 001°40'7 7.1
2015-May-09 02:33N 51°15' E 001°39'7 7.5
2015-May-09 01:34N 51°08' E 001°42'7 7.3
2015-May-09 00:33N 51°02' E 001°35'  

Dump ship's entire track history